Time;durP1;ratioP1;P1;durP2;ratioP2;P2;SDS_P1;SDS_P2;PMS_P1;PMS_P2;Temp;Humidity;BMP_temperature;BMP_pressure;BME280_temperature;BME280_humidity;BME280_pressure;Samples;Min_cycle;Max_cycle;Signal;HPM_P1;HPM_P2
2023/03/22 00:00:27;;;;;;;5.97;5.37;;;11.80;99.90;;;;;;5050993;28;21132;-76
2023/03/22 00:02:55;;;;;;;7.27;6.57;;;11.80;99.90;;;;;;5046437;28;20461;-75
2023/03/22 00:05:21;;;;;;;7.67;5.87;;;11.80;99.90;;;;;;5050703;28;20416;-76
2023/03/22 00:07:53;;;;;;;6.73;5.90;;;11.70;99.90;;;;;;5050410;28;20420;-75
2023/03/22 00:10:19;;;;;;;7.33;5.90;;;11.80;99.90;;;;;;5050136;28;20416;-76
2023/03/22 00:12:45;;;;;;;9.40;5.80;;;11.80;99.90;;;;;;5049478;28;20486;-75
2023/03/22 00:15:11;;;;;;;8.40;6.17;;;11.80;99.90;;;;;;5048624;28;21050;-76
2023/03/22 00:17:37;;;;;;;10.33;5.63;;;11.80;99.90;;;;;;5050297;28;20416;-75
2023/03/22 00:20:05;;;;;;;6.90;5.30;;;11.80;99.90;;;;;;5050350;28;20182;-76
2023/03/22 00:22:31;;;;;;;8.80;6.87;;;11.80;99.90;;;;;;5049388;28;20202;-76
2023/03/22 00:24:57;;;;;;;7.03;6.00;;;11.90;99.90;;;;;;5050091;28;20428;-76
2023/03/22 00:27:23;;;;;;;7.03;6.27;;;11.90;99.90;;;;;;5050223;28;20457;-76
2023/03/22 00:29:51;;;;;;;5.50;5.00;;;11.80;99.90;;;;;;5047092;28;20774;-76
2023/03/22 00:32:17;;;;;;;9.10;6.50;;;11.80;99.90;;;;;;5021128;28;20201;-76
2023/03/22 00:34:42;;;;;;;7.33;6.63;;;11.80;99.90;;;;;;5048932;28;20941;-76
2023/03/22 00:37:08;;;;;;;9.33;6.20;;;11.90;99.90;;;;;;5044587;28;20543;-76
2023/03/22 00:39:34;;;;;;;8.90;6.80;;;11.90;99.90;;;;;;5049996;28;20680;-75
2023/03/22 00:42:00;;;;;;;10.53;7.10;;;11.90;99.90;;;;;;5041869;28;20182;-76
2023/03/22 00:44:25;;;;;;;6.90;5.67;;;11.80;99.90;;;;;;5049777;28;20209;-76
2023/03/22 00:46:51;;;;;;;8.77;5.87;;;11.90;99.90;;;;;;5049490;28;20476;-76
2023/03/22 00:49:17;;;;;;;6.43;5.33;;;11.90;99.90;;;;;;5050450;28;20658;-76
2023/03/22 00:51:43;;;;;;;9.13;6.40;;;11.90;99.90;;;;;;5050052;28;20185;-76
2023/03/22 00:54:09;;;;;;;8.13;6.10;;;11.80;99.90;;;;;;5048506;28;20494;-75
2023/03/22 00:56:36;;;;;;;6.90;5.40;;;11.80;99.90;;;;;;5049973;28;20243;-76
2023/03/22 00:59:03;;;;;;;10.13;6.10;;;11.90;99.90;;;;;;5049157;28;20185;-76
2023/03/22 01:01:28;;;;;;;6.80;5.93;;;11.80;99.90;;;;;;5049804;28;20424;-75
2023/03/22 01:03:54;;;;;;;9.00;6.73;;;11.80;99.90;;;;;;5049494;28;21025;-76
2023/03/22 01:06:20;;;;;;;7.80;6.93;;;11.80;99.90;;;;;;5050307;28;20412;-76
2023/03/22 01:08:49;;;;;;;8.60;6.67;;;11.80;99.90;;;;;;5049608;28;20512;-76
2023/03/22 01:11:15;;;;;;;10.73;6.30;;;11.80;99.90;;;;;;5048418;28;20315;-76
2023/03/22 01:13:41;;;;;;;10.30;6.93;;;11.80;99.90;;;;;;5048031;28;20460;-75
2023/03/22 01:16:08;;;;;;;7.27;6.47;;;11.80;99.90;;;;;;5049896;28;20423;-75
2023/03/22 01:18:34;;;;;;;7.77;7.00;;;11.80;99.90;;;;;;5049408;28;20322;-76
2023/03/22 01:21:00;;;;;;;11.00;6.90;;;11.70;99.90;;;;;;5049829;28;20427;-76
2023/03/22 01:23:26;;;;;;;8.90;6.40;;;11.70;99.90;;;;;;5049203;28;20456;-76
2023/03/22 01:25:52;;;;;;;12.50;7.20;;;11.70;99.90;;;;;;5049923;28;20412;-76
2023/03/22 01:28:17;;;;;;;9.67;6.87;;;11.70;99.90;;;;;;5049451;28;20182;-75
2023/03/22 01:30:43;;;;;;;9.77;6.90;;;11.70;99.90;;;;;;5049485;28;20377;-76
2023/03/22 01:33:09;;;;;;;9.27;7.30;;;11.70;99.90;;;;;;5048828;28;20198;-75
2023/03/22 01:35:35;;;;;;;8.73;7.50;;;11.70;99.90;;;;;;5049412;28;20265;-76
2023/03/22 01:38:01;;;;;;;7.43;6.60;;;11.70;99.90;;;;;;5049131;28;20173;-76
2023/03/22 01:40:27;;;;;;;8.03;7.23;;;11.70;99.90;;;;;;5049344;28;20413;-76
2023/03/22 01:42:54;;;;;;;10.87;7.23;;;11.70;99.90;;;;;;5049074;28;20460;-76
2023/03/22 01:45:34;;;;;;;8.40;7.20;;;11.70;99.90;;;;;;5049417;28;20498;-76
2023/03/22 01:48:23;;;;;;;8.37;7.47;;;11.70;99.90;;;;;;5047641;28;20407;-76
2023/03/22 01:51:02;;;;;;;10.17;7.80;;;11.70;99.90;;;;;;5047786;28;20412;-76
2023/03/22 01:53:32;;;;;;;11.57;7.30;;;11.70;99.90;;;;;;5047469;28;20973;-75
2023/03/22 01:55:58;;;;;;;11.27;7.57;;;11.70;99.90;;;;;;5048022;28;20416;-76
2023/03/22 01:58:24;;;;;;;8.53;7.73;;;11.70;99.90;;;;;;5048845;28;20412;-77
2023/03/22 02:00:51;;;;;;;8.47;7.10;;;11.70;99.90;;;;;;5047586;28;20495;-76
2023/03/22 02:03:25;;;;;;;10.63;8.03;;;11.70;99.90;;;;;;5048945;28;20592;-76
2023/03/22 02:05:52;;;;;;;7.77;6.80;;;11.70;99.90;;;;;;5047617;28;20755;-76
2023/03/22 02:08:18;;;;;;;9.20;7.33;;;11.70;99.90;;;;;;5048813;28;20473;-76
2023/03/22 02:10:44;;;;;;;8.80;7.10;;;11.70;99.90;;;;;;5048716;28;20420;-76
2023/03/22 02:13:46;;;;;;;9.37;7.30;;;11.70;99.90;;;;;;5048384;28;20452;-76
2023/03/22 02:16:21;;;;;;;9.70;7.83;;;11.70;99.90;;;;;;5044665;28;20196;-76
2023/03/22 02:18:57;;;;;;;9.20;7.00;;;11.70;99.90;;;;;;5047421;28;20905;-76
2023/03/22 02:21:41;;;;;;;15.00;7.50;;;11.60;99.90;;;;;;5048698;28;20447;-76
2023/03/22 02:24:28;;;;;;;10.30;7.43;;;11.60;99.90;;;;;;5046840;28;20550;-76
2023/03/22 02:27:35;;;;;;;13.70;7.47;;;11.60;99.90;;;;;;5047110;28;20405;-76
2023/03/22 02:30:22;;;;;;;10.00;7.70;;;11.50;99.90;;;;;;5047973;28;20412;-75
2023/03/22 02:33:06;;;;;;;8.40;7.50;;;11.50;99.90;;;;;;5048464;28;20412;-76
2023/03/22 02:35:47;;;;;;;9.80;7.83;;;11.50;99.90;;;;;;5047324;28;20413;-75
2023/03/22 02:38:27;;;;;;;9.20;8.30;;;11.50;99.90;;;;;;5048295;28;20416;-76
2023/03/22 02:40:53;;;;;;;12.33;8.07;;;11.60;99.90;;;;;;5048284;28;20417;-76
2023/03/22 02:43:45;;;;;;;8.70;7.60;;;11.60;99.90;;;;;;5048151;28;21005;-76
2023/03/22 02:46:24;;;;;;;9.33;8.10;;;11.60;99.90;;;;;;5051140;28;20176;-75
2023/03/22 02:49:03;;;;;;;8.37;7.53;;;11.60;99.90;;;;;;5052599;28;20400;-76
2023/03/22 02:51:39;;;;;;;8.87;7.87;;;11.60;99.90;;;;;;5052329;28;20411;-75
2023/03/22 02:54:14;;;;;;;11.87;8.73;;;11.60;99.90;;;;;;5052122;28;20436;-75
2023/03/22 02:56:40;;;;;;;8.10;7.30;;;11.60;99.90;;;;;;5052477;28;20411;-76
2023/03/22 02:59:08;;;;;;;10.73;7.77;;;11.60;99.90;;;;;;5052230;28;20408;-76
2023/03/22 03:01:41;;;;;;;9.00;8.10;;;11.50;99.90;;;;;;5050924;28;20375;-76
2023/03/22 03:04:13;;;;;;;8.90;7.97;;;11.50;99.90;;;;;;5051927;28;20455;-76
2023/03/22 03:06:44;;;;;;;9.00;7.20;;;11.50;99.90;;;;;;5050945;28;20416;-75
2023/03/22 03:09:16;;;;;;;13.30;8.00;;;11.50;99.90;;;;;;5052271;28;20944;-76
2023/03/22 03:11:51;;;;;;;14.43;7.80;;;11.20;99.90;;;;;;5052248;28;20413;-76
2023/03/22 03:14:26;;;;;;;8.50;7.37;;;11.40;99.90;;;;;;5051986;28;21003;-75
2023/03/22 03:17:21;;;;;;;12.73;7.87;;;11.40;99.90;;;;;;5051903;28;20923;-75
2023/03/22 03:19:59;;;;;;;10.20;7.37;;;11.40;99.90;;;;;;5050638;28;20494;-75
2023/03/22 03:22:54;;;;;;;11.83;8.43;;;11.40;99.90;;;;;;5052020;28;20415;-76
2023/03/22 03:25:32;;;;;;;9.07;8.10;;;11.40;99.90;;;;;;5051956;28;20990;-75
2023/03/22 03:28:08;;;;;;;8.83;7.67;;;11.30;99.90;;;;;;5051801;28;20420;-75
2023/03/22 03:30:43;;;;;;;11.33;7.80;;;11.30;99.90;;;;;;5050285;28;20419;-76
2023/03/22 03:33:15;;;;;;;9.80;8.00;;;11.30;99.90;;;;;;5050261;28;20473;-75
2023/03/22 03:35:52;;;;;;;9.50;8.50;;;11.30;99.90;;;;;;5051799;28;20473;-76
2023/03/22 03:38:24;;;;;;;9.33;8.10;;;11.30;99.90;;;;;;5051403;28;20526;-75
2023/03/22 03:40:58;;;;;;;10.97;8.40;;;11.20;99.90;;;;;;5051381;28;20424;-75
2023/03/22 03:43:27;;;;;;;14.10;8.30;;;11.20;99.90;;;;;;5050128;28;20475;-75
2023/03/22 03:45:54;;;;;;;11.23;8.10;;;11.20;99.90;;;;;;5051445;28;20465;-75
2023/03/22 03:48:27;;;;;;;9.90;7.90;;;11.20;99.90;;;;;;5051326;28;20413;-76
2023/03/22 03:50:54;;;;;;;8.60;7.70;;;11.20;99.90;;;;;;5051270;28;20420;-75
2023/03/22 03:53:21;;;;;;;8.23;7.40;;;11.10;99.90;;;;;;5051248;28;20466;-76
2023/03/22 03:55:46;;;;;;;8.47;7.10;;;11.10;99.90;;;;;;5051524;28;20420;-76
2023/03/22 03:58:12;;;;;;;7.70;6.70;;;11.10;99.90;;;;;;5050065;28;20916;-76
2023/03/22 04:00:38;;;;;;;8.43;7.53;;;11.10;99.90;;;;;;5051023;28;20268;-76
2023/03/22 04:03:05;;;;;;;10.50;8.20;;;11.10;99.90;;;;;;5050919;28;20241;-75
2023/03/22 04:05:31;;;;;;;8.60;7.60;;;11.10;99.90;;;;;;5051201;28;20260;-75
2023/03/22 04:07:56;;;;;;;9.70;7.07;;;11.00;99.90;;;;;;5049709;28;20590;-75
2023/03/22 04:10:22;;;;;;;8.27;6.93;;;11.00;99.90;;;;;;5050858;28;20409;-76
2023/03/22 04:12:48;;;;;;;11.63;8.00;;;11.00;99.90;;;;;;5049509;28;20208;-75
2023/03/22 04:15:14;;;;;;;10.70;7.33;;;11.00;99.90;;;;;;5050758;28;20264;-76
2023/03/22 04:17:40;;;;;;;13.57;7.53;;;11.00;99.90;;;;;;5050685;28;20267;-76
2023/03/22 04:20:09;;;;;;;9.57;7.20;;;11.00;99.90;;;;;;5049490;28;20416;-75
2023/03/22 04:22:37;;;;;;;7.50;6.77;;;11.00;99.90;;;;;;5050735;28;20431;-76
2023/03/22 04:25:04;;;;;;;8.63;7.43;;;11.00;99.90;;;;;;5050714;28;20502;-76
2023/03/22 04:27:30;;;;;;;8.57;6.80;;;11.00;99.90;;;;;;5050659;28;20413;-75
2023/03/22 04:29:56;;;;;;;7.97;7.17;;;11.00;99.90;;;;;;5050676;28;20775;-75
2023/03/22 04:32:22;;;;;;;11.57;7.40;;;11.00;99.90;;;;;;5050579;28;20186;-75
2023/03/22 04:34:49;;;;;;;9.60;7.33;;;11.00;99.90;;;;;;5049969;28;20447;-75
2023/03/22 04:37:16;;;;;;;7.13;6.43;;;11.00;99.90;;;;;;5050368;28;20473;-75
2023/03/22 04:39:42;;;;;;;7.23;6.53;;;10.90;99.90;;;;;;5050474;28;20854;-76
2023/03/22 04:42:08;;;;;;;7.20;6.27;;;11.00;99.90;;;;;;5050183;28;20404;-76
2023/03/22 04:44:34;;;;;;;8.73;6.67;;;10.90;99.90;;;;;;5050163;28;20804;-75
2023/03/22 04:47:00;;;;;;;9.03;5.60;;;11.00;99.90;;;;;;5050381;28;20478;-76
2023/03/22 04:49:25;;;;;;;7.80;6.80;;;11.00;99.90;;;;;;5050249;28;20896;-75
2023/03/22 04:51:53;;;;;;;8.60;6.30;;;10.90;99.90;;;;;;5050436;28;20452;-75
2023/03/22 04:54:19;;;;;;;8.30;6.60;;;11.00;99.90;;;;;;5049937;28;20208;-75
2023/03/22 04:56:44;;;;;;;9.30;6.60;;;11.00;99.90;;;;;;5050021;28;20854;-76
2023/03/22 04:59:10;;;;;;;6.53;5.77;;;11.00;99.90;;;;;;5050393;28;20243;-75
2023/03/22 05:01:36;;;;;;;10.17;7.90;;;11.00;99.90;;;;;;5050034;28;20281;-76
2023/03/22 05:04:02;;;;;;;6.93;5.83;;;11.00;99.90;;;;;;5049789;28;20209;-75
2023/03/22 05:06:31;;;;;;;8.77;6.40;;;11.00;99.90;;;;;;5049991;28;20837;-75
2023/03/22 05:08:58;;;;;;;9.53;6.77;;;10.90;99.90;;;;;;5048069;28;20901;-75
2023/03/22 05:11:26;;;;;;;8.83;6.80;;;11.00;99.90;;;;;;5048527;28;20787;-76
2023/03/22 05:13:53;;;;;;;6.77;5.83;;;11.00;99.90;;;;;;5048287;28;20452;-76
2023/03/22 05:16:19;;;;;;;6.90;5.97;;;11.00;99.90;;;;;;5049828;28;21005;-75
2023/03/22 05:18:45;;;;;;;6.80;6.07;;;11.00;99.90;;;;;;5048374;28;20478;-75
2023/03/22 05:21:14;;;;;;;7.40;5.63;;;11.00;99.90;;;;;;5049472;28;20503;-75
2023/03/22 05:23:41;;;;;;;8.20;6.13;;;11.00;99.90;;;;;;5049727;28;20248;-75
2023/03/22 05:26:09;;;;;;;8.80;6.00;;;10.90;99.90;;;;;;5049903;28;20413;-75
2023/03/22 05:28:35;;;;;;;6.10;5.50;;;10.90;99.90;;;;;;5049501;28;20427;-76
2023/03/22 05:31:02;;;;;;;7.80;6.10;;;11.00;99.90;;;;;;5049510;28;20416;-76
2023/03/22 05:33:28;;;;;;;8.43;5.20;;;11.00;99.90;;;;;;5048003;28;20606;-75
2023/03/22 05:35:54;;;;;;;6.97;5.90;;;11.00;99.90;;;;;;5048702;28;20409;-75
2023/03/22 05:38:23;;;;;;;8.27;5.47;;;11.00;99.90;;;;;;5049021;28;20424;-75
2023/03/22 05:40:49;;;;;;;7.30;6.60;;;11.00;99.90;;;;;;5049907;28;20419;-76
2023/03/22 05:43:15;;;;;;;7.23;6.17;;;11.00;99.90;;;;;;5047607;28;20464;-76
2023/03/22 05:45:40;;;;;;;8.87;6.00;;;11.00;99.90;;;;;;5049725;28;20178;-76
2023/03/22 05:48:06;;;;;;;10.47;4.90;;;11.10;99.90;;;;;;5048837;28;20781;-76
2023/03/22 05:50:32;;;;;;;8.00;5.57;;;11.10;99.90;;;;;;5047832;28;20303;-75
2023/03/22 05:52:58;;;;;;;7.50;5.60;;;11.10;99.90;;;;;;5048983;28;20569;-76
2023/03/22 05:55:23;;;;;;;10.47;6.43;;;11.00;99.90;;;;;;5049115;28;20189;-75
2023/03/22 05:57:51;;;;;;;10.10;6.27;;;11.10;99.90;;;;;;5047607;28;20194;-76
2023/03/22 06:00:17;;;;;;;7.00;5.50;;;11.10;99.90;;;;;;5049042;28;20212;-76
2023/03/22 06:02:46;;;;;;;7.07;5.10;;;11.10;99.90;;;;;;5048802;28;20598;-76
2023/03/22 06:05:13;;;;;;;6.33;5.57;;;11.10;99.90;;;;;;5048746;28;20408;-76
2023/03/22 06:07:40;;;;;;;6.00;5.00;;;11.20;99.90;;;;;;5047568;28;20405;-75
2023/03/22 06:10:07;;;;;;;6.47;5.03;;;11.40;99.90;;;;;;5048948;28;20508;-76
2023/03/22 06:12:33;;;;;;;5.90;4.73;;;11.20;99.90;;;;;;5048648;28;20438;-76
2023/03/22 06:14:59;;;;;;;7.90;5.00;;;11.20;99.90;;;;;;5048537;28;20926;-76
2023/03/22 06:17:25;;;;;;;7.83;5.13;;;11.20;99.90;;;;;;5047734;28;20412;-75
2023/03/22 06:19:51;;;;;;;9.87;4.70;;;11.30;99.90;;;;;;5047890;28;20177;-76
2023/03/22 06:22:17;;;;;;;7.30;4.87;;;11.30;99.90;;;;;;5048858;28;20920;-75
2023/03/22 06:24:44;;;;;;;6.43;4.83;;;11.30;99.90;;;;;;5048468;28;20229;-76
2023/03/22 06:27:10;;;;;;;8.77;5.03;;;11.30;99.90;;;;;;5048414;28;20469;-76
2023/03/22 06:29:35;;;;;;;6.03;5.07;;;11.40;99.90;;;;;;5048585;28;20708;-75
2023/03/22 06:32:02;;;;;;;7.73;5.30;;;11.40;99.90;;;;;;5048854;28;20174;-76
2023/03/22 06:34:28;;;;;;;5.70;4.67;;;11.40;99.90;;;;;;5048166;28;20205;-75
2023/03/22 06:36:54;;;;;;;7.97;5.33;;;11.40;99.90;;;;;;5048479;28;20935;-75
2023/03/22 06:39:20;;;;;;;7.90;4.63;;;11.40;99.90;;;;;;5047551;28;20432;-76
2023/03/22 06:41:46;;;;;;;7.60;4.70;;;11.40;99.90;;;;;;5028683;28;20838;-76
2023/03/22 06:44:13;;;;;;;4.93;3.90;;;11.40;99.90;;;;;;5028159;28;20503;-76
2023/03/22 06:46:39;;;;;;;5.97;4.47;;;11.50;99.90;;;;;;5027460;28;20898;-76
2023/03/22 06:49:05;;;;;;;5.70;4.63;;;11.50;99.90;;;;;;5027035;28;20417;-76
2023/03/22 06:51:31;;;;;;;5.10;4.60;;;11.50;99.90;;;;;;5028532;28;20542;-76
2023/03/22 06:53:57;;;;;;;8.20;5.13;;;11.60;99.90;;;;;;5043428;28;20445;-76
2023/03/22 06:56:23;;;;;;;6.00;4.23;;;11.60;99.90;;;;;;5028747;28;20182;-76
2023/03/22 06:58:50;;;;;;;6.30;4.10;;;11.60;99.90;;;;;;5028697;28;20429;-76
2023/03/22 07:01:17;;;;;;;6.20;3.87;;;11.60;99.90;;;;;;5028475;28;20549;-76
2023/03/22 07:03:43;;;;;;;5.03;4.40;;;11.60;99.90;;;;;;5027854;28;20483;-76
2023/03/22 07:06:09;;;;;;;5.23;3.50;;;11.70;99.90;;;;;;5037090;28;20447;-76
2023/03/22 07:08:36;;;;;;;6.93;4.00;;;11.70;99.90;;;;;;5063272;28;20734;-76
2023/03/22 07:11:02;;;;;;;6.70;4.50;;;11.70;99.90;;;;;;5048172;28;20237;-76
2023/03/22 07:13:28;;;;;;;5.97;4.37;;;11.70;99.90;;;;;;5046365;28;20460;-76
2023/03/22 07:15:59;;;;;;;6.50;3.77;;;11.80;99.90;;;;;;5048161;28;20430;-76
2023/03/22 07:18:25;;;;;;;6.70;3.80;;;11.80;99.90;;;;;;5046580;28;20260;-76
2023/03/22 07:20:51;;;;;;;5.93;3.23;;;11.80;99.90;;;;;;5047849;28;20428;-76
2023/03/22 07:23:17;;;;;;;10.13;3.70;;;11.80;99.90;;;;;;5047362;28;20497;-76
2023/03/22 07:25:47;;;;;;;7.33;3.80;;;11.80;99.90;;;;;;5048232;28;20220;-76
2023/03/22 07:28:14;;;;;;;3.90;3.60;;;11.80;99.90;;;;;;5047681;28;20507;-76
2023/03/22 07:30:40;;;;;;;6.97;3.67;;;11.80;99.90;;;;;;5048014;28;20420;-76
2023/03/22 07:33:08;;;;;;;8.23;3.53;;;11.90;99.90;;;;;;5044165;28;20487;-76
2023/03/22 07:35:35;;;;;;;3.83;3.20;;;11.80;99.90;;;;;;5038915;28;20424;-77
2023/03/22 07:38:01;;;;;;;6.33;3.30;;;11.90;99.90;;;;;;5044603;28;20427;-76
2023/03/22 07:40:27;;;;;;;6.50;3.50;;;12.00;99.90;;;;;;5048713;28;20985;-74
2023/03/22 07:42:53;;;;;;;5.33;3.17;;;12.00;99.90;;;;;;5048056;28;20546;-74
2023/03/22 07:45:20;;;;;;;6.90;4.20;;;12.00;99.90;;;;;;5050909;28;20193;-74
2023/03/22 07:47:46;;;;;;;6.80;3.47;;;12.10;99.90;;;;;;5050107;28;20221;-74
2023/03/22 07:50:12;;;;;;;4.23;2.50;;;12.10;99.90;;;;;;5047049;28;20435;-74
2023/03/22 07:52:39;;;;;;;6.57;3.10;;;12.30;99.90;;;;;;5051044;28;20204;-73
2023/03/22 07:55:06;;;;;;;6.10;3.20;;;12.40;99.90;;;;;;5050629;28;20442;-74
2023/03/22 07:57:32;;;;;;;7.87;3.60;;;12.50;99.90;;;;;;5049955;28;20761;-74
2023/03/22 07:59:58;;;;;;;6.43;3.67;;;12.60;99.90;;;;;;5051194;28;20470;-76
2023/03/22 08:02:24;;;;;;;5.70;3.00;;;12.70;99.90;;;;;;5045984;28;20471;-76
2023/03/22 08:04:51;;;;;;;6.03;3.10;;;12.70;99.90;;;;;;5043901;28;20197;-76
2023/03/22 08:07:19;;;;;;;4.10;2.90;;;12.80;99.90;;;;;;5039459;28;20398;-76
2023/03/22 08:09:45;;;;;;;3.70;2.70;;;12.90;99.90;;;;;;5039208;28;20462;-76
2023/03/22 08:12:11;;;;;;;4.30;2.80;;;12.90;99.90;;;;;;5045026;28;20452;-76
2023/03/22 08:14:37;;;;;;;5.93;2.80;;;12.90;99.90;;;;;;5048552;28;20448;-76
2023/03/22 08:17:04;;;;;;;8.33;2.73;;;12.90;99.90;;;;;;5050003;28;20178;-76
2023/03/22 08:19:30;;;;;;;4.13;2.57;;;12.80;99.90;;;;;;5043624;28;20626;-76
2023/03/22 08:21:56;;;;;;;4.43;2.93;;;12.80;99.90;;;;;;5050935;28;20870;-76
2023/03/22 08:24:22;;;;;;;5.40;2.73;;;12.70;99.90;;;;;;5048627;28;20495;-76
2023/03/22 08:26:48;;;;;;;3.00;2.23;;;12.70;99.90;;;;;;5049617;28;20208;-76
2023/03/22 08:29:14;;;;;;;8.50;2.40;;;12.70;99.90;;;;;;5050334;28;20182;-76
2023/03/22 08:31:41;;;;;;;6.33;2.40;;;12.70;99.90;;;;;;5049260;28;20428;-77
2023/03/22 08:34:07;;;;;;;7.57;2.77;;;12.70;99.90;;;;;;5049099;28;21024;-76
2023/03/22 08:36:33;;;;;;;5.47;2.50;;;12.70;99.90;;;;;;5051039;28;20431;-77
2023/03/22 08:39:00;;;;;;;5.30;2.53;;;12.70;99.90;;;;;;5050559;28;20204;-76
2023/03/22 08:41:26;;;;;;;3.73;2.30;;;12.70;99.90;;;;;;5031867;28;20498;-76
2023/03/22 08:43:51;;;;;;;6.20;2.93;;;12.70;99.90;;;;;;5048394;28;21256;-76
2023/03/22 08:46:17;;;;;;;5.20;2.40;;;12.70;99.90;;;;;;5047752;28;20496;-77
2023/03/22 08:48:49;;;;;;;3.97;2.63;;;12.80;99.90;;;;;;5050309;28;20209;-76
2023/03/22 08:51:16;;;;;;;3.10;2.27;;;12.80;99.90;;;;;;5050334;28;20174;-77
2023/03/22 08:53:42;;;;;;;5.10;2.50;;;12.80;99.90;;;;;;5048888;28;20432;-76
2023/03/22 08:56:08;;;;;;;4.97;2.40;;;12.80;99.90;;;;;;5050419;28;20418;-76
2023/03/22 08:58:35;;;;;;;5.30;2.50;;;12.80;99.90;;;;;;5049042;28;20187;-77
2023/03/22 09:01:00;;;;;;;5.97;2.87;;;12.80;99.90;;;;;;5048721;28;20805;-76
2023/03/22 09:03:26;;;;;;;3.00;2.70;;;12.80;99.90;;;;;;5047825;28;20550;-76
2023/03/22 09:05:52;;;;;;;6.47;3.20;;;12.90;99.90;;;;;;5047575;28;20235;-76
2023/03/22 09:08:19;;;;;;;5.10;2.47;;;12.80;99.90;;;;;;5031795;28;20454;-76
2023/03/22 09:10:50;;;;;;;2.33;2.13;;;12.80;99.90;;;;;;5049096;28;20409;-76
2023/03/22 09:13:16;;;;;;;5.37;2.40;;;12.80;99.90;;;;;;5044600;28;20460;-75
2023/03/22 09:15:43;;;;;;;3.70;2.10;;;12.70;99.90;;;;;;5047910;28;20847;-76
2023/03/22 09:18:10;;;;;;;5.97;1.90;;;12.80;99.90;;;;;;5049297;28;20940;-76
2023/03/22 09:20:36;;;;;;;1.93;1.50;;;12.80;99.90;;;;;;5043030;28;20420;-76
2023/03/22 09:23:03;;;;;;;5.40;1.70;;;12.80;99.90;;;;;;5049371;28;20720;-76
2023/03/22 09:25:28;;;;;;;5.20;1.70;;;12.70;99.90;;;;;;5049776;28;20400;-76
2023/03/22 09:27:54;;;;;;;3.80;1.80;;;12.70;99.90;;;;;;5049664;28;20486;-76
2023/03/22 09:30:20;;;;;;;3.00;1.77;;;12.70;99.90;;;;;;5048059;28;20249;-76
2023/03/22 09:32:45;;;;;;;2.80;1.70;;;12.80;99.90;;;;;;5048857;28;20800;-76
2023/03/22 09:35:11;;;;;;;2.57;1.70;;;12.70;99.90;;;;;;5047986;28;20653;-76
2023/03/22 09:37:37;;;;;;;2.97;1.80;;;12.90;99.90;;;;;;5049364;28;20201;-76
2023/03/22 09:40:05;;;;;;;4.33;2.10;;;12.90;99.90;;;;;;5047745;28;20463;-76
2023/03/22 09:42:40;;;;;;;4.00;1.73;;;13.00;99.90;;;;;;5047809;28;20432;-76
2023/03/22 09:45:12;;;;;;;3.30;1.43;;;13.00;99.90;;;;;;5049057;28;20925;-76
2023/03/22 09:47:42;;;;;;;2.83;1.60;;;13.10;99.90;;;;;;5047823;28;20417;-76
2023/03/22 09:50:21;;;;;;;1.97;1.77;;;13.10;99.90;;;;;;5047645;28;20424;-76
2023/03/22 09:52:48;;;;;;;2.90;1.80;;;13.20;99.90;;;;;;5049118;28;20415;-76
2023/03/22 09:55:35;;;;;;;2.27;1.60;;;13.10;99.90;;;;;;5048797;28;20420;-76
2023/03/22 09:58:28;;;;;;;4.37;2.10;;;13.20;99.90;;;;;;5047700;28;20415;-76
2023/03/22 10:01:01;;;;;;;9.33;2.40;;;13.20;99.90;;;;;;5048711;28;20838;-76
2023/03/22 10:03:48;;;;;;;4.03;2.00;;;13.30;99.90;;;;;;5048598;28;20509;-76
2023/03/22 10:06:20;;;;;;;3.03;1.80;;;13.30;99.90;;;;;;5031062;28;20451;-76
2023/03/22 10:08:57;;;;;;;1.80;1.67;;;13.20;99.90;;;;;;5048717;28;20801;-76
2023/03/22 10:11:44;;;;;;;5.33;2.03;;;13.20;99.90;;;;;;5048595;28;20446;-76
2023/03/22 10:14:34;;;;;;;5.83;2.93;;;13.40;99.90;;;;;;5048549;28;20523;-76
2023/03/22 10:17:05;;;;;;;2.67;1.77;;;13.60;99.90;;;;;;5048777;28;20843;-76
2023/03/22 10:19:42;;;;;;;4.30;1.70;;;13.70;99.90;;;;;;5048758;28;20439;-76
2023/03/22 10:22:11;;;;;;;2.20;1.73;;;13.80;99.90;;;;;;5027468;28;20413;-76
2023/03/22 10:24:40;;;;;;;3.27;1.80;;;13.90;99.90;;;;;;5028718;28;20469;-76
2023/03/22 10:27:18;;;;;;;3.97;1.90;;;13.80;99.90;;;;;;5028432;28;20409;-76
2023/03/22 10:30:07;;;;;;;3.00;1.97;;;13.90;99.90;;;;;;5028575;28;20423;-76
2023/03/22 10:32:51;;;;;;;3.33;1.77;;;13.90;99.90;;;;;;5025514;28;20483;-76
2023/03/22 10:35:17;;;;;;;3.77;1.60;;;13.80;99.90;;;;;;5028568;28;20419;-76
2023/03/22 10:37:46;;;;;;;7.07;1.70;;;13.80;99.90;;;;;;5028554;28;20770;-76
2023/03/22 10:40:23;;;;;;;4.97;1.47;;;13.70;99.90;;;;;;5069066;28;20485;-76
2023/03/22 10:42:55;;;;;;;2.17;1.50;;;13.70;99.90;;;;;;5067321;28;20510;-77
2023/03/22 10:45:24;;;;;;;4.20;1.90;;;13.70;99.90;;;;;;5068720;28;20426;-76
2023/03/22 10:48:35;;;;;;;3.50;1.67;;;13.80;99.90;;;;;;5068242;28;20450;-76
2023/03/22 10:51:01;;;;;;;1.70;1.37;;;13.90;99.90;;;;;;5051547;28;20454;-76
2023/03/22 10:53:45;;;;;;;2.37;1.30;;;14.00;99.90;;;;;;5067971;28;20493;-76
2023/03/22 10:56:14;;;;;;;3.70;2.17;;;14.00;99.90;;;;;;5068555;28;20514;-76
2023/03/22 10:58:40;;;;;;;2.70;1.57;;;14.00;99.90;;;;;;5068332;28;20412;-76
2023/03/22 11:01:11;;;;;;;1.60;1.40;;;14.00;99.90;;;;;;5068305;28;20427;-76
2023/03/22 11:03:41;;;;;;;3.03;1.50;;;13.90;99.90;;;;;;5067919;28;20458;-76
2023/03/22 11:06:22;;;;;;;6.87;1.57;;;14.00;99.90;;;;;;5069095;28;20422;-76
2023/03/22 11:08:55;;;;;;;3.97;1.80;;;14.00;99.90;;;;;;5072092;28;20418;-76
2023/03/22 11:11:23;;;;;;;4.80;1.70;;;14.00;99.90;;;;;;5072004;28;20407;-77
2023/03/22 11:14:18;;;;;;;5.60;3.50;;;14.00;99.90;;;;;;5071746;28;20836;-76
2023/03/22 11:16:54;;;;;;;2.70;1.57;;;14.00;99.90;;;;;;5070611;28;20816;-76
2023/03/22 11:19:25;;;;;;;4.43;1.90;;;14.00;99.90;;;;;;5072048;28;20900;-77
2023/03/22 11:21:52;;;;;;;2.80;1.70;;;14.00;99.90;;;;;;5052710;28;20857;-76
2023/03/22 11:24:20;;;;;;;3.37;2.00;;;14.00;99.90;;;;;;5051471;28;21023;-77
2023/03/22 11:27:24;;;;;;;3.00;1.50;;;13.90;99.90;;;;;;5051639;28;20416;-76
2023/03/22 11:29:53;;;;;;;2.70;1.50;;;14.00;99.90;;;;;;5048520;28;20423;-77
2023/03/22 11:32:29;;;;;;;1.90;1.40;;;14.00;99.90;;;;;;5051826;28;20825;-76
2023/03/22 11:35:22;;;;;;;3.03;1.30;;;14.00;99.90;;;;;;5051419;28;21016;-76
2023/03/22 11:37:51;;;;;;;2.47;1.20;;;14.00;99.90;;;;;;5051781;28;20789;-76
2023/03/22 11:40:18;;;;;;;3.40;1.30;;;14.00;99.90;;;;;;5070191;28;20773;-76
2023/03/22 11:42:45;;;;;;;4.93;1.23;;;14.00;99.90;;;;;;5071340;28;20442;-76
2023/03/22 11:45:20;;;;;;;3.30;1.20;;;14.00;99.90;;;;;;5071537;28;20408;-76
2023/03/22 11:47:46;;;;;;;2.70;1.20;;;13.90;99.90;;;;;;5071203;28;20455;-76
2023/03/22 11:50:30;;;;;;;2.43;1.23;;;13.90;99.90;;;;;;5071174;28;20411;-76
2023/03/22 11:52:56;;;;;;;3.93;1.30;;;13.90;99.90;;;;;;5071318;28;20434;-76
2023/03/22 11:55:23;;;;;;;5.03;1.63;;;13.80;99.90;;;;;;5071254;28;20423;-76
2023/03/22 11:57:49;;;;;;;3.43;1.43;;;13.80;99.90;;;;;;5071000;28;20439;-76
2023/03/22 12:00:19;;;;;;;4.33;1.50;;;13.70;99.90;;;;;;5069781;28;20465;-76
2023/03/22 12:02:52;;;;;;;2.40;1.30;;;13.70;99.90;;;;;;5070949;28;20427;-76
2023/03/22 12:05:31;;;;;;;2.83;1.70;;;13.60;99.90;;;;;;5069897;28;20584;-76
2023/03/22 12:08:05;;;;;;;4.80;1.40;;;13.60;99.90;;;;;;5070826;28;20396;-76
2023/03/22 12:10:38;;;;;;;6.00;1.37;;;13.60;99.90;;;;;;5070931;28;20506;-76
2023/03/22 12:13:11;;;;;;;4.80;1.50;;;13.60;99.90;;;;;;5069470;28;20435;-76
2023/03/22 12:15:49;;;;;;;3.00;1.40;;;13.60;99.90;;;;;;5069694;28;20892;-76
2023/03/22 12:18:28;;;;;;;3.40;1.40;;;13.60;99.90;;;;;;5069466;28;20411;-76
2023/03/22 12:20:55;;;;;;;3.40;1.60;;;13.50;99.90;;;;;;5060637;28;20928;-76
2023/03/22 12:23:28;;;;;;;2.30;1.30;;;13.60;99.90;;;;;;5050136;28;20463;-76
2023/03/22 12:26:18;;;;;;;4.67;1.50;;;13.50;99.90;;;;;;5050767;28;20451;-76
2023/03/22 12:28:53;;;;;;;2.50;1.17;;;13.50;99.90;;;;;;5047630;28;20491;-76
2023/03/22 12:31:30;;;;;;;2.33;1.30;;;13.50;99.90;;;;;;5050587;28;20412;-76
2023/03/22 12:34:03;;;;;;;3.40;1.67;;;13.50;99.90;;;;;;5052987;28;20760;-77
2023/03/22 12:36:38;;;;;;;3.10;1.50;;;13.50;99.90;;;;;;5052364;28;20510;-77
2023/03/22 12:39:06;;;;;;;2.20;1.10;;;13.50;99.90;;;;;;5065386;28;20423;-77
2023/03/22 12:41:38;;;;;;;3.63;1.40;;;13.50;99.90;;;;;;5073938;28;20495;-76
2023/03/22 12:44:15;;;;;;;2.00;1.30;;;13.50;99.90;;;;;;5073408;28;20463;-77
2023/03/22 12:46:52;;;;;;;5.43;1.57;;;13.50;99.90;;;;;;5074288;28;20912;-76
2023/03/22 12:49:28;;;;;;;2.53;1.47;;;13.50;99.90;;;;;;5073336;28;20411;-76
2023/03/22 12:51:59;;;;;;;1.60;1.10;;;13.50;99.90;;;;;;5073207;28;20445;-76
2023/03/22 12:54:26;;;;;;;5.13;1.60;;;13.50;99.90;;;;;;5073009;28;20538;-76
2023/03/22 12:56:53;;;;;;;2.50;1.53;;;13.50;99.90;;;;;;5073080;28;20943;-77
2023/03/22 12:59:27;;;;;;;4.30;1.57;;;13.50;99.90;;;;;;5073956;28;20424;-77